createdAt,value
2024-02-03T00:00:48.968Z,-2.68
2024-02-03T00:03:37.319Z,-2.66
2024-02-03T00:06:06.195Z,-2.65
2024-02-03T00:08:34.912Z,-2.64
2024-02-03T00:11:08.867Z,-2.62
2024-02-03T00:13:37.025Z,-2.61
2024-02-03T00:16:07.299Z,-2.58
2024-02-03T00:18:35.853Z,-2.57
2024-02-03T00:21:05.857Z,-2.57
2024-02-03T00:23:34.157Z,-2.61
2024-02-03T00:26:02.417Z,-2.63
2024-02-03T00:28:30.567Z,-2.65
2024-02-03T00:30:58.607Z,-2.66
2024-02-03T00:33:26.817Z,-2.68
2024-02-03T00:35:55.041Z,-2.70
2024-02-03T00:38:23.145Z,-2.71
2024-02-03T00:40:51.140Z,-2.73
2024-02-03T00:43:19.270Z,-2.73
2024-02-03T00:45:47.952Z,-2.75
2024-02-03T00:48:16.463Z,-2.75
2024-02-03T00:50:44.619Z,-2.76
2024-02-03T00:53:12.682Z,-2.76
2024-02-03T00:55:40.737Z,-2.76
2024-02-03T00:58:09.740Z,-2.75
2024-02-03T01:00:37.854Z,-2.74
2024-02-03T01:03:06.338Z,-2.73
2024-02-03T01:05:34.641Z,-2.70
2024-02-03T01:08:02.998Z,-2.67
2024-02-03T01:10:31.133Z,-2.61
2024-02-03T01:12:59.388Z,-2.54
2024-02-03T01:15:27.834Z,-2.49
2024-02-03T01:17:56.155Z,-2.42
2024-02-03T01:20:24.371Z,-2.34
2024-02-03T01:22:52.509Z,-2.25
2024-02-03T01:25:20.553Z,-2.19
2024-02-03T01:27:48.852Z,-2.12
2024-02-03T01:30:17.912Z,-2.04
2024-02-03T01:32:46.080Z,-1.97
2024-02-03T01:35:14.234Z,-1.90
2024-02-03T01:37:42.351Z,-1.85
2024-02-03T01:40:13.578Z,-1.79
2024-02-03T01:42:42.770Z,-1.76
2024-02-03T01:45:14.233Z,-1.74
2024-02-03T01:47:42.877Z,-1.73
2024-02-03T01:50:13.924Z,-1.75
2024-02-03T01:52:44.170Z,-1.77
2024-02-03T01:55:13.140Z,-1.77
2024-02-03T01:57:44.012Z,-1.76
2024-02-03T02:00:14.055Z,-1.77
2024-02-03T02:02:42.226Z,-1.81
2024-02-03T02:05:10.602Z,-1.84
2024-02-03T02:07:45.843Z,-1.84
2024-02-03T02:10:14.165Z,-1.85
2024-02-03T02:12:42.640Z,-1.85
2024-02-03T02:15:11.155Z,-1.86
2024-02-03T02:17:39.419Z,-1.86
2024-02-03T02:20:11.737Z,-1.85
2024-02-03T02:22:40.357Z,-1.83
2024-02-03T02:25:08.579Z,-1.81
2024-02-03T02:27:36.694Z,-1.81
2024-02-03T02:30:05.303Z,-1.82
2024-02-03T02:32:33.454Z,-1.83
2024-02-03T02:35:01.546Z,-1.83
2024-02-03T02:37:31.132Z,-1.82
2024-02-03T02:39:59.229Z,-1.80
2024-02-03T02:42:27.479Z,-1.78
2024-02-03T02:44:55.658Z,-1.76
2024-02-03T02:47:23.788Z,-1.75
2024-02-03T02:49:52.088Z,-1.74
2024-02-03T02:52:20.415Z,-1.73
2024-02-03T02:54:48.556Z,-1.71
2024-02-03T02:57:16.711Z,-1.69
2024-02-03T02:59:44.835Z,-1.66
2024-02-03T03:02:13.077Z,-1.66
2024-02-03T03:04:41.317Z,-1.64
2024-02-03T03:07:09.417Z,-1.62
2024-02-03T03:09:37.531Z,-1.59
2024-02-03T03:12:06.002Z,-1.57
2024-02-03T03:14:34.046Z,-1.54
2024-02-03T03:17:02.071Z,-1.51
2024-02-03T03:19:30.188Z,-1.47
2024-02-03T03:21:58.599Z,-1.42
2024-02-03T03:24:26.632Z,-1.39
2024-02-03T03:26:54.718Z,-1.36
2024-02-03T03:29:22.894Z,-1.30
2024-02-03T03:31:50.930Z,-1.29
2024-02-03T03:34:19.114Z,-1.26
2024-02-03T03:36:47.337Z,-1.25
2024-02-03T03:39:15.507Z,-1.22
2024-02-03T03:41:43.913Z,-1.19
2024-02-03T03:44:11.920Z,-1.19
2024-02-03T03:46:40.341Z,-1.19
2024-02-03T03:49:08.418Z,-1.18
2024-02-03T03:51:36.615Z,-1.19
2024-02-03T03:54:04.737Z,-1.19
2024-02-03T03:56:32.832Z,-1.18
2024-02-03T03:59:02.528Z,-1.17
2024-02-03T04:01:30.834Z,-1.16
2024-02-03T04:03:59.153Z,-1.17
2024-02-03T04:06:27.371Z,-1.15
2024-02-03T04:08:56.148Z,-1.15
2024-02-03T04:11:24.198Z,-1.15
2024-02-03T04:13:52.311Z,-1.16
2024-02-03T04:16:20.419Z,-1.18
2024-02-03T04:18:49.618Z,-1.19
2024-02-03T04:21:18.798Z,-1.20
2024-02-03T04:23:47.038Z,-1.19
2024-02-03T04:26:15.102Z,-1.19
2024-02-03T04:28:43.153Z,-1.18
2024-02-03T04:31:13.484Z,-1.19
2024-02-03T04:33:41.800Z,-1.19
2024-02-03T04:36:10.703Z,-1.20
2024-02-03T04:38:38.773Z,-1.19
2024-02-03T04:41:06.887Z,-1.18
2024-02-03T04:43:34.944Z,-1.16
2024-02-03T04:46:03.105Z,-1.12
2024-02-03T04:48:31.285Z,-1.10
2024-02-03T04:50:59.791Z,-1.08
2024-02-03T04:53:27.789Z,-1.05
2024-02-03T04:55:55.930Z,-1.01
2024-02-03T04:58:24.421Z,-0.98
2024-02-03T05:00:52.687Z,-0.94
2024-02-03T05:03:20.860Z,-0.91
2024-02-03T05:05:49.348Z,-0.89
2024-02-03T05:08:17.779Z,-0.86
2024-02-03T05:10:45.922Z,-0.82
2024-02-03T05:13:14.096Z,-0.81
2024-02-03T05:15:42.158Z,-0.79
2024-02-03T05:18:10.360Z,-0.77
2024-02-03T05:20:38.554Z,-0.75
2024-02-03T05:23:06.706Z,-0.75
2024-02-03T05:25:34.764Z,-0.75
2024-02-03T05:28:03.536Z,-0.75
2024-02-03T05:30:31.644Z,-0.75
2024-02-03T05:32:59.734Z,-0.76
2024-02-03T05:35:27.931Z,-0.76
2024-02-03T05:37:55.974Z,-0.77
2024-02-03T05:40:24.124Z,-0.77
2024-02-03T05:42:52.309Z,-0.79
2024-02-03T05:45:23.405Z,-0.80
2024-02-03T05:47:52.135Z,-0.81
2024-02-03T05:50:20.417Z,-0.83
2024-02-03T05:52:48.445Z,-0.85
2024-02-03T05:55:16.710Z,-0.86
2024-02-03T05:57:53.165Z,-0.87
2024-02-03T06:00:22.007Z,-0.87
2024-02-03T06:02:50.216Z,-0.88
2024-02-03T06:05:18.645Z,-0.89
2024-02-03T06:07:46.776Z,-0.91
2024-02-03T06:10:14.941Z,-0.94
2024-02-03T06:12:43.025Z,-0.95
2024-02-03T06:15:11.172Z,-0.93
2024-02-03T06:17:39.309Z,-0.89
2024-02-03T06:20:08.327Z,-0.92
2024-02-03T06:22:36.508Z,-0.91
2024-02-03T06:25:04.880Z,-0.87
2024-02-03T06:27:33.254Z,-0.83
2024-02-03T06:30:01.261Z,-0.77
2024-02-03T06:32:29.348Z,-0.75
2024-02-03T06:34:57.508Z,-0.72
2024-02-03T06:37:25.666Z,-0.68
2024-02-03T06:39:53.774Z,-0.63
2024-02-03T06:42:21.921Z,-0.57
2024-02-03T06:44:53.001Z,-0.49
2024-02-03T06:47:21.448Z,-0.42
2024-02-03T06:49:49.803Z,-0.38
2024-02-03T06:52:17.990Z,-0.35
2024-02-03T06:54:46.301Z,-0.34
2024-02-03T06:57:14.376Z,-0.36
2024-02-03T06:59:42.498Z,-0.41
2024-02-03T07:02:10.540Z,-0.49
2024-02-03T07:04:38.649Z,-0.55
2024-02-03T07:07:06.766Z,-0.58
2024-02-03T07:09:35.017Z,-0.61
2024-02-03T07:12:07.606Z,-0.65
2024-02-03T07:14:36.631Z,-0.64
2024-02-03T07:17:04.942Z,-0.63
2024-02-03T07:19:33.241Z,-0.61
2024-02-03T07:22:01.555Z,-0.60
2024-02-03T07:24:30.704Z,-0.59
2024-02-03T07:26:58.912Z,-0.58
2024-02-03T07:29:26.975Z,-0.56
2024-02-03T07:32:02.338Z,-0.55
2024-02-03T07:34:31.362Z,-0.57
2024-02-03T07:36:59.580Z,-0.56
2024-02-03T07:39:27.668Z,-0.54
2024-02-03T07:41:56.238Z,-0.50
2024-02-03T07:44:24.378Z,-0.49
2024-02-03T07:46:52.393Z,-0.47
2024-02-03T07:49:20.731Z,-0.44
2024-02-03T07:51:48.922Z,-0.39
2024-02-03T07:54:17.334Z,-0.36
2024-02-03T07:56:45.462Z,-0.31
2024-02-03T07:59:13.537Z,-0.28
2024-02-03T08:01:41.679Z,-0.24
2024-02-03T08:04:10.038Z,-0.20
2024-02-03T08:06:38.373Z,-0.14
2024-02-03T08:09:06.519Z,-0.07
2024-02-03T08:11:34.657Z,-0.00
2024-02-03T08:14:02.779Z,0.04
2024-02-03T08:16:30.793Z,0.07
2024-02-03T08:18:58.950Z,0.10
2024-02-03T08:21:27.158Z,0.12
2024-02-03T08:23:55.411Z,0.13
2024-02-03T08:26:23.590Z,0.14
2024-02-03T08:28:51.675Z,0.12
2024-02-03T08:31:19.726Z,0.13
2024-02-03T08:33:47.883Z,0.11
2024-02-03T08:36:16.142Z,0.11
2024-02-03T08:38:44.361Z,0.11
2024-02-03T08:41:15.765Z,0.12
2024-02-03T08:43:44.648Z,0.12
2024-02-03T08:46:12.726Z,0.13
2024-02-03T08:48:40.931Z,0.13
2024-02-03T08:51:09.356Z,0.13
2024-02-03T08:53:37.324Z,0.15
2024-02-03T08:56:08.529Z,0.15
2024-02-03T08:58:36.638Z,0.16
2024-02-03T09:01:05.010Z,0.19
2024-02-03T09:03:33.184Z,0.21
2024-02-03T09:06:01.356Z,0.24
2024-02-03T09:08:30.238Z,0.27
2024-02-03T09:10:58.370Z,0.32
2024-02-03T09:13:26.420Z,0.38
2024-02-03T09:15:54.709Z,0.44
2024-02-03T09:18:23.157Z,0.50
2024-02-03T09:20:51.512Z,0.59
2024-02-03T09:23:19.521Z,0.67
2024-02-03T09:25:49.786Z,0.74
2024-02-03T09:28:17.842Z,0.83
2024-02-03T09:30:46.204Z,0.93
2024-02-03T09:33:14.479Z,1.03
2024-02-03T09:35:42.679Z,1.12
2024-02-03T09:38:10.779Z,1.18
2024-02-03T09:40:39.067Z,1.23
2024-02-03T09:43:07.756Z,1.29
2024-02-03T09:45:37.071Z,1.36
2024-02-03T09:48:06.051Z,1.38
2024-02-03T09:50:34.439Z,1.43
2024-02-03T09:53:02.732Z,1.47
2024-02-03T09:55:30.818Z,1.49
2024-02-03T09:57:59.842Z,1.55
2024-02-03T10:00:28.488Z,1.63
2024-02-03T10:02:56.627Z,1.68
2024-02-03T10:05:32.232Z,1.71
2024-02-03T10:08:07.493Z,1.74
2024-02-03T10:13:11.783Z,1.80
2024-02-03T10:15:41.192Z,1.85
2024-02-03T10:18:09.920Z,1.90
2024-02-03T10:20:38.513Z,1.98
2024-02-03T10:23:08.260Z,2.05
2024-02-03T10:25:37.029Z,2.10
2024-02-03T10:28:06.882Z,2.17
2024-02-03T10:30:36.856Z,2.24
2024-02-03T10:33:08.402Z,2.31
2024-02-03T10:35:38.105Z,2.40
2024-02-03T10:38:06.225Z,2.50
2024-02-03T10:40:35.694Z,2.61
2024-02-03T10:43:07.688Z,2.71
2024-02-03T10:45:39.188Z,2.78
2024-02-03T10:48:11.487Z,2.87
2024-02-03T10:50:44.865Z,2.96
2024-02-03T10:53:19.959Z,3.07
2024-02-03T10:55:56.645Z,3.17
2024-02-03T10:58:27.400Z,3.22
2024-02-03T11:00:57.877Z,3.28
2024-02-03T11:03:31.235Z,3.35
2024-02-03T11:06:04.809Z,3.45
2024-02-03T11:08:34.350Z,3.60
2024-02-03T11:11:02.470Z,3.76
2024-02-03T11:13:31.645Z,3.91
2024-02-03T11:16:01.573Z,4.06
2024-02-03T11:18:40.525Z,4.19
2024-02-03T11:21:09.620Z,4.36
2024-02-03T11:23:37.732Z,4.53
2024-02-03T11:26:05.972Z,4.68
2024-02-03T11:28:35.413Z,4.82
2024-02-03T11:31:05.860Z,4.90
2024-02-03T11:33:47.794Z,4.98
2024-02-03T11:36:16.301Z,5.07
2024-02-03T11:38:48.822Z,5.18
2024-02-03T11:41:17.692Z,5.31
2024-02-03T11:43:49.646Z,5.45
2024-02-03T11:46:19.161Z,5.63
2024-02-03T11:48:48.398Z,5.77
2024-02-03T11:51:17.052Z,5.92
2024-02-03T11:53:45.395Z,6.06
2024-02-03T11:56:13.662Z,6.18
2024-02-03T11:58:42.890Z,6.27
2024-02-03T12:01:14.548Z,6.45
2024-02-03T12:03:43.034Z,6.75
2024-02-03T12:06:11.964Z,7.10
2024-02-03T12:08:40.332Z,7.45
2024-02-03T12:11:10.719Z,7.92
2024-02-03T12:13:42.022Z,8.44
2024-02-03T12:16:10.304Z,8.85
2024-02-03T12:18:40.292Z,9.07
2024-02-03T12:21:08.930Z,9.02
2024-02-03T12:23:37.434Z,9.00
2024-02-03T12:26:05.644Z,8.97
2024-02-03T12:28:34.258Z,8.84
2024-02-03T12:31:02.725Z,8.89
2024-02-03T12:33:31.109Z,9.02
2024-02-03T12:36:00.618Z,9.00
2024-02-03T12:38:28.874Z,8.93
2024-02-03T12:40:57.138Z,8.87
2024-02-03T12:43:25.358Z,8.82
2024-02-03T12:45:53.873Z,8.77
2024-02-03T12:48:22.234Z,8.78
2024-02-03T12:50:53.330Z,8.91
2024-02-03T12:53:21.984Z,9.01
2024-02-03T12:55:50.623Z,9.02
2024-02-03T12:58:18.854Z,9.17
2024-02-03T13:00:47.108Z,9.63
2024-02-03T13:03:15.381Z,10.13
2024-02-03T13:05:48.792Z,10.64
2024-02-03T13:08:17.671Z,11.22
2024-02-03T13:10:46.274Z,11.77
2024-02-03T13:13:14.685Z,12.28
2024-02-03T13:15:42.857Z,12.59
2024-02-03T13:18:11.442Z,12.61
2024-02-03T13:20:40.980Z,12.52
2024-02-03T13:23:09.188Z,12.35
2024-02-03T13:25:38.214Z,12.18
2024-02-03T13:28:07.654Z,12.10
2024-02-03T13:30:36.083Z,12.03
2024-02-03T13:33:04.841Z,11.84
2024-02-03T13:35:33.288Z,11.77
2024-02-03T13:38:05.077Z,11.74
2024-02-03T13:40:33.497Z,11.74
2024-02-03T13:43:02.464Z,11.70
2024-02-03T13:45:32.420Z,11.58
2024-02-03T13:48:01.249Z,11.47
2024-02-03T13:50:29.623Z,11.44
2024-02-03T13:52:57.730Z,11.49
2024-02-03T13:55:25.959Z,11.45
2024-02-03T13:57:54.109Z,11.39
2024-02-03T14:00:22.459Z,11.29
2024-02-03T14:02:51.286Z,11.18
2024-02-03T14:05:19.598Z,10.96
2024-02-03T14:07:47.803Z,10.69
2024-02-03T14:10:16.007Z,10.44
2024-02-03T14:12:44.164Z,10.18
2024-02-03T14:15:12.553Z,9.91
2024-02-03T14:17:40.830Z,9.67
2024-02-03T14:20:09.892Z,9.41
2024-02-03T14:22:38.035Z,9.13
2024-02-03T14:25:06.873Z,8.92
2024-02-03T14:27:36.339Z,8.69
2024-02-03T14:30:07.110Z,8.47
2024-02-03T14:32:35.680Z,8.28
2024-02-03T14:35:04.534Z,8.08
2024-02-03T14:37:33.064Z,7.91
2024-02-03T14:40:01.535Z,7.77
2024-02-03T14:42:30.050Z,7.63
2024-02-03T14:44:58.382Z,7.48
2024-02-03T14:47:29.064Z,7.32
2024-02-03T14:49:58.062Z,7.19
2024-02-03T14:52:26.776Z,7.06
2024-02-03T14:54:54.942Z,6.97
2024-02-03T14:57:24.183Z,6.84
2024-02-03T14:59:52.522Z,6.70
2024-02-03T15:02:20.620Z,6.58
2024-02-03T15:04:48.814Z,6.41
2024-02-03T15:07:17.047Z,6.27
2024-02-03T15:09:46.456Z,6.15
2024-02-03T15:12:15.111Z,6.02
2024-02-03T15:14:43.215Z,5.91
2024-02-03T15:17:12.639Z,5.78
2024-02-03T15:19:41.862Z,5.69
2024-02-03T15:22:10.027Z,5.57
2024-02-03T15:24:38.237Z,5.47
2024-02-03T15:27:06.433Z,5.39
2024-02-03T15:29:34.671Z,5.29
2024-02-03T15:32:02.800Z,5.18
2024-02-03T15:34:31.702Z,5.09
2024-02-03T15:37:01.719Z,5.02
2024-02-03T15:39:30.347Z,4.96
2024-02-03T15:41:58.520Z,4.89
2024-02-03T15:44:35.712Z,4.83
2024-02-03T15:47:10.238Z,4.78
2024-02-03T15:49:38.427Z,4.73
2024-02-03T15:52:07.041Z,4.72
2024-02-03T15:54:35.164Z,4.70
2024-02-03T15:57:03.849Z,4.69
2024-02-03T15:59:33.221Z,4.69
2024-02-03T16:02:01.568Z,4.67
2024-02-03T16:04:29.994Z,4.65
2024-02-03T16:06:58.489Z,4.66
2024-02-03T16:09:27.044Z,4.66
2024-02-03T16:11:56.659Z,4.64
2024-02-03T16:14:25.186Z,4.62
2024-02-03T16:16:53.305Z,4.60
2024-02-03T16:19:21.767Z,4.58
2024-02-03T16:21:50.695Z,4.57
2024-02-03T16:24:18.876Z,4.55
2024-02-03T16:26:47.049Z,4.51
2024-02-03T16:29:15.206Z,4.48
2024-02-03T16:31:43.297Z,4.42
2024-02-03T16:34:11.640Z,4.38
2024-02-03T16:36:39.778Z,4.33
2024-02-03T16:39:07.921Z,4.27
2024-02-03T16:41:36.060Z,4.23
2024-02-03T16:44:04.410Z,4.16
2024-02-03T16:46:32.496Z,4.11
2024-02-03T16:49:01.565Z,4.02
2024-02-03T16:51:30.324Z,3.96
2024-02-03T16:53:58.626Z,3.93
2024-02-03T16:56:27.013Z,3.89
2024-02-03T16:58:55.235Z,3.88
2024-02-03T17:01:23.374Z,3.85
2024-02-03T17:03:52.026Z,3.81
2024-02-03T17:06:20.874Z,3.75
2024-02-03T17:08:50.046Z,3.71
2024-02-03T17:11:18.252Z,3.66
2024-02-03T17:13:46.265Z,3.61
2024-02-03T17:16:14.552Z,3.60
2024-02-03T17:18:42.781Z,3.61
2024-02-03T17:21:11.009Z,3.62
2024-02-03T17:23:39.165Z,3.63
2024-02-03T17:26:07.898Z,3.67
2024-02-03T17:28:35.973Z,3.70
2024-02-03T17:31:04.706Z,3.73
2024-02-03T17:33:33.037Z,3.74
2024-02-03T17:36:01.331Z,3.75
2024-02-03T17:38:29.426Z,3.76
2024-02-03T17:40:57.488Z,3.78
2024-02-03T17:43:25.634Z,3.79
2024-02-03T17:45:53.707Z,3.80
2024-02-03T17:48:22.596Z,3.82
2024-02-03T17:50:52.549Z,3.83
2024-02-03T17:53:20.716Z,3.84
2024-02-03T17:55:49.258Z,3.84
2024-02-03T17:58:17.346Z,3.80
2024-02-03T18:00:45.535Z,3.78
2024-02-03T18:03:13.743Z,3.77
2024-02-03T18:05:43.855Z,3.74
2024-02-03T18:08:13.796Z,3.72
2024-02-03T18:10:41.979Z,3.69
2024-02-03T18:13:10.775Z,3.64
2024-02-03T18:15:38.844Z,3.62
2024-02-03T18:18:08.715Z,3.58
2024-02-03T18:20:36.961Z,3.55
2024-02-03T18:23:05.641Z,3.51
2024-02-03T18:25:33.708Z,3.49
2024-02-03T18:28:01.730Z,3.43
2024-02-03T18:30:29.789Z,3.40
2024-02-03T18:32:58.001Z,3.38
2024-02-03T18:35:26.220Z,3.33
2024-02-03T18:37:54.212Z,3.29
2024-02-03T18:40:22.418Z,3.25
2024-02-03T18:42:50.541Z,3.22
2024-02-03T18:45:19.748Z,3.19
2024-02-03T18:47:48.199Z,3.16
2024-02-03T18:50:16.348Z,3.13
2024-02-03T18:52:46.077Z,3.12
2024-02-03T18:55:14.151Z,3.07
2024-02-03T18:57:42.200Z,3.05
2024-02-03T19:00:10.693Z,3.05
2024-02-03T19:02:38.915Z,3.07
2024-02-03T19:05:09.901Z,3.10
2024-02-03T19:07:38.006Z,3.13
2024-02-03T19:10:07.443Z,3.13
2024-02-03T19:12:35.584Z,3.11
2024-02-03T19:15:04.776Z,3.14
2024-02-03T19:17:33.801Z,3.16
2024-02-03T19:20:04.771Z,3.20
2024-02-03T19:22:34.154Z,3.22
2024-02-03T19:25:02.313Z,3.25
2024-02-03T19:27:31.768Z,3.28
2024-02-03T19:30:01.172Z,3.31
2024-02-03T19:32:29.411Z,3.33
2024-02-03T19:34:57.743Z,3.34
2024-02-03T19:37:26.208Z,3.33
2024-02-03T19:39:55.325Z,3.33
2024-02-03T19:42:23.549Z,3.31
2024-02-03T19:44:51.959Z,3.27
2024-02-03T19:47:20.109Z,3.20
2024-02-03T19:49:48.459Z,3.14
2024-02-03T19:52:16.708Z,3.10
2024-02-03T19:54:44.894Z,3.07
2024-02-03T19:57:12.962Z,3.02
2024-02-03T19:59:41.116Z,2.97
2024-02-03T20:02:09.535Z,2.92
2024-02-03T20:04:38.682Z,2.87
2024-02-03T20:07:06.927Z,2.80
2024-02-03T20:09:35.862Z,2.76
2024-02-03T20:12:04.310Z,2.74
2024-02-03T20:14:32.394Z,2.73
2024-02-03T20:17:00.438Z,2.70
2024-02-03T20:19:28.878Z,2.67
2024-02-03T20:21:57.216Z,2.65
2024-02-03T20:24:27.422Z,2.64
2024-02-03T20:26:56.414Z,2.63
2024-02-03T20:29:24.456Z,2.62
2024-02-03T20:31:52.658Z,2.63
2024-02-03T20:34:21.337Z,2.65
2024-02-03T20:36:50.983Z,2.68
2024-02-03T20:39:19.500Z,2.69
2024-02-03T20:41:47.625Z,2.72
2024-02-03T20:44:17.416Z,2.75
2024-02-03T20:46:47.692Z,2.81
2024-02-03T20:49:16.278Z,2.86
2024-02-03T20:51:44.899Z,2.88
2024-02-03T20:54:13.552Z,2.91
2024-02-03T20:56:41.597Z,2.92
2024-02-03T20:59:09.625Z,2.94
2024-02-03T21:01:37.792Z,2.96
2024-02-03T21:04:09.869Z,2.98
2024-02-03T21:06:38.422Z,2.97
2024-02-03T21:09:14.615Z,2.97
2024-02-03T21:11:46.901Z,2.93
2024-02-03T21:14:16.055Z,2.91
2024-02-03T21:16:44.150Z,2.83
2024-02-03T21:19:12.563Z,2.75
2024-02-03T21:21:43.579Z,2.69
2024-02-03T21:24:11.751Z,2.64
2024-02-03T21:26:39.845Z,2.57
2024-02-03T21:29:07.966Z,2.51
2024-02-03T21:31:36.014Z,2.48
2024-02-03T21:34:04.332Z,2.46
2024-02-03T21:36:32.669Z,2.44
2024-02-03T21:39:00.789Z,2.43
2024-02-03T21:41:28.842Z,2.41
2024-02-03T21:43:59.635Z,2.39
2024-02-03T21:46:27.724Z,2.37
2024-02-03T21:48:56.002Z,2.35
2024-02-03T21:51:24.505Z,2.33
2024-02-03T21:53:52.650Z,2.32
2024-02-03T21:56:21.723Z,2.31
2024-02-03T21:58:49.853Z,2.30
2024-02-03T22:01:18.168Z,2.31
2024-02-03T22:03:46.648Z,2.31
2024-02-03T22:06:14.876Z,2.30
2024-02-03T22:08:43.780Z,2.27
2024-02-03T22:11:11.807Z,2.27
2024-02-03T22:13:39.930Z,2.26
2024-02-03T22:16:07.989Z,2.26
2024-02-03T22:18:36.541Z,2.27
2024-02-03T22:21:07.427Z,2.28
2024-02-03T22:23:37.298Z,2.30
2024-02-03T22:26:05.722Z,2.31
2024-02-03T22:28:33.865Z,2.33
2024-02-03T22:31:02.011Z,2.34
2024-02-03T22:33:30.484Z,2.33
2024-02-03T22:35:58.591Z,2.35
2024-02-03T22:38:26.607Z,2.37
2024-02-03T22:40:54.739Z,2.37
2024-02-03T22:43:22.746Z,2.38
2024-02-03T22:45:51.083Z,2.38
2024-02-03T22:48:19.319Z,2.38
2024-02-03T22:50:47.551Z,2.37
2024-02-03T22:53:15.707Z,2.37
2024-02-03T22:55:43.685Z,2.35
2024-02-03T22:58:11.867Z,2.33
2024-02-03T23:00:42.360Z,2.27
2024-02-03T23:03:11.168Z,2.22
2024-02-03T23:05:39.723Z,2.19
2024-02-03T23:08:07.849Z,2.14
2024-02-03T23:10:35.927Z,2.10
2024-02-03T23:13:04.310Z,2.06
2024-02-03T23:15:32.660Z,2.02
2024-02-03T23:18:01.595Z,1.97
2024-02-03T23:20:29.868Z,1.94
2024-02-03T23:22:58.185Z,1.91
2024-02-03T23:25:28.133Z,1.89
2024-02-03T23:27:56.363Z,1.87
2024-02-03T23:30:24.489Z,1.85
2024-02-03T23:32:52.591Z,1.83
2024-02-03T23:35:20.641Z,1.83
2024-02-03T23:37:48.687Z,1.83
2024-02-03T23:40:16.816Z,1.81
2024-02-03T23:42:44.891Z,1.79
2024-02-03T23:45:13.050Z,1.77
2024-02-03T23:47:41.932Z,1.75
2024-02-03T23:50:10.267Z,1.76
2024-02-03T23:52:38.454Z,1.78
2024-02-03T23:55:07.425Z,1.81
2024-02-03T23:57:35.627Z,1.82
